sensor_id;sensor_type;location;lat;lon;timestamp;P1;durP1;ratioP1;P2;durP2;ratioP2
70800;SDS011;59616;52.170;5.386;2022-11-21T00:00:21;39.55;;;13.70;;
70800;SDS011;59616;52.170;5.386;2022-11-21T00:02:48;35.88;;;13.25;;
70800;SDS011;59616;52.170;5.386;2022-11-21T00:05:15;33.55;;;12.98;;
70800;SDS011;59616;52.170;5.386;2022-11-21T00:10:11;34.25;;;12.13;;
70800;SDS011;59616;52.170;5.386;2022-11-21T00:12:38;35.67;;;13.60;;
70800;SDS011;59616;52.170;5.386;2022-11-21T00:15:06;35.03;;;13.30;;
70800;SDS011;59616;52.170;5.386;2022-11-21T00:17:33;36.67;;;12.85;;
70800;SDS011;59616;52.170;5.386;2022-11-21T00:20:00;36.63;;;12.98;;
70800;SDS011;59616;52.170;5.386;2022-11-21T00:24:55;34.35;;;12.50;;
70800;SDS011;59616;52.170;5.386;2022-11-21T00:27:23;34.88;;;12.18;;
70800;SDS011;59616;52.170;5.386;2022-11-21T00:32:16;35.53;;;12.10;;
70800;SDS011;59616;52.170;5.386;2022-11-21T00:34:43;32.63;;;12.35;;
70800;SDS011;59616;52.170;5.386;2022-11-21T00:37:11;34.65;;;12.07;;
70800;SDS011;59616;52.170;5.386;2022-11-21T00:42:04;34.20;;;12.85;;
70800;SDS011;59616;52.170;5.386;2022-11-21T00:44:31;32.00;;;12.23;;
70800;SDS011;59616;52.170;5.386;2022-11-21T00:46:59;34.33;;;11.98;;
70800;SDS011;59616;52.170;5.386;2022-11-21T00:49:26;32.88;;;12.65;;
70800;SDS011;59616;52.170;5.386;2022-11-21T00:54:19;33.58;;;12.15;;
70800;SDS011;59616;52.170;5.386;2022-11-21T00:56:47;36.90;;;11.80;;
70800;SDS011;59616;52.170;5.386;2022-11-21T01:01:40;30.55;;;11.07;;
70800;SDS011;59616;52.170;5.386;2022-11-21T01:04:07;34.15;;;11.82;;
70800;SDS011;59616;52.170;5.386;2022-11-21T01:09:04;33.75;;;12.70;;
70800;SDS011;59616;52.170;5.386;2022-11-21T01:13:58;34.90;;;12.18;;
70800;SDS011;59616;52.170;5.386;2022-11-21T01:16:26;31.73;;;11.80;;
70800;SDS011;59616;52.170;5.386;2022-11-21T01:18:53;36.53;;;12.85;;
70800;SDS011;59616;52.170;5.386;2022-11-21T01:23:52;34.70;;;12.02;;
70800;SDS011;59616;52.170;5.386;2022-11-21T01:26:24;33.00;;;12.30;;
70800;SDS011;59616;52.170;5.386;2022-11-21T01:28:52;33.58;;;12.68;;
70800;SDS011;59616;52.170;5.386;2022-11-21T01:31:23;30.42;;;11.50;;
70800;SDS011;59616;52.170;5.386;2022-11-21T01:33:51;31.95;;;11.35;;
70800;SDS011;59616;52.170;5.386;2022-11-21T01:38:50;28.10;;;10.73;;
70800;SDS011;59616;52.170;5.386;2022-11-21T01:41:28;33.83;;;11.32;;
70800;SDS011;59616;52.170;5.386;2022-11-21T01:44:02;36.85;;;12.90;;
70800;SDS011;59616;52.170;5.386;2022-11-21T01:46:30;31.00;;;12.05;;
70800;SDS011;59616;52.170;5.386;2022-11-21T01:51:30;36.85;;;12.93;;
70800;SDS011;59616;52.170;5.386;2022-11-21T01:54:02;32.67;;;12.70;;
70800;SDS011;59616;52.170;5.386;2022-11-21T01:56:32;33.35;;;11.15;;
70800;SDS011;59616;52.170;5.386;2022-11-21T01:59:03;32.60;;;11.05;;
70800;SDS011;59616;52.170;5.386;2022-11-21T02:01:31;32.95;;;12.75;;
70800;SDS011;59616;52.170;5.386;2022-11-21T02:04:00;32.47;;;11.68;;
70800;SDS011;59616;52.170;5.386;2022-11-21T02:06:28;34.50;;;11.75;;
70800;SDS011;59616;52.170;5.386;2022-11-21T02:08:57;32.05;;;12.63;;
70800;SDS011;59616;52.170;5.386;2022-11-21T02:13:52;35.10;;;12.73;;
70800;SDS011;59616;52.170;5.386;2022-11-21T02:16:20;33.75;;;13.35;;
70800;SDS011;59616;52.170;5.386;2022-11-21T02:18:48;41.33;;;12.32;;
70800;SDS011;59616;52.170;5.386;2022-11-21T02:21:19;34.22;;;12.38;;
70800;SDS011;59616;52.170;5.386;2022-11-21T02:23:49;38.38;;;12.43;;
70800;SDS011;59616;52.170;5.386;2022-11-21T02:26:25;32.58;;;12.20;;
70800;SDS011;59616;52.170;5.386;2022-11-21T02:31:19;33.75;;;11.68;;
70800;SDS011;59616;52.170;5.386;2022-11-21T02:39:03;32.83;;;11.77;;
70800;SDS011;59616;52.170;5.386;2022-11-21T02:41:31;36.97;;;11.90;;
70800;SDS011;59616;52.170;5.386;2022-11-21T02:44:23;30.55;;;11.45;;
70800;SDS011;59616;52.170;5.386;2022-11-21T02:46:48;31.80;;;12.40;;
70800;SDS011;59616;52.170;5.386;2022-11-21T02:49:15;33.47;;;12.50;;
70800;SDS011;59616;52.170;5.386;2022-11-21T02:51:45;33.85;;;11.57;;
70800;SDS011;59616;52.170;5.386;2022-11-21T02:56:39;35.30;;;11.48;;
70800;SDS011;59616;52.170;5.386;2022-11-21T02:59:06;55.97;;;12.52;;
70800;SDS011;59616;52.170;5.386;2022-11-21T03:01:33;35.58;;;12.13;;
70800;SDS011;59616;52.170;5.386;2022-11-21T03:06:27;31.38;;;10.75;;
70800;SDS011;59616;52.170;5.386;2022-11-21T03:11:21;38.47;;;11.13;;
70800;SDS011;59616;52.170;5.386;2022-11-21T03:16:14;38.88;;;12.68;;
70800;SDS011;59616;52.170;5.386;2022-11-21T03:18:42;37.40;;;12.15;;
70800;SDS011;59616;52.170;5.386;2022-11-21T03:23:35;34.13;;;11.35;;
70800;SDS011;59616;52.170;5.386;2022-11-21T03:28:29;44.42;;;12.13;;
70800;SDS011;59616;52.170;5.386;2022-11-21T03:33:23;34.00;;;10.18;;
70800;SDS011;59616;52.170;5.386;2022-11-21T03:35:50;37.67;;;10.77;;
70800;SDS011;59616;52.170;5.386;2022-11-21T03:38:17;44.20;;;10.40;;
70800;SDS011;59616;52.170;5.386;2022-11-21T03:43:11;50.38;;;11.57;;
70800;SDS011;59616;52.170;5.386;2022-11-21T03:45:38;65.65;;;11.93;;
70800;SDS011;59616;52.170;5.386;2022-11-21T03:48:05;46.17;;;11.75;;
70800;SDS011;59616;52.170;5.386;2022-11-21T03:52:59;56.35;;;10.88;;
70800;SDS011;59616;52.170;5.386;2022-11-21T03:57:52;37.40;;;10.07;;
70800;SDS011;59616;52.170;5.386;2022-11-21T04:00:19;53.88;;;11.18;;
70800;SDS011;59616;52.170;5.386;2022-11-21T04:02:47;51.47;;;11.48;;
70800;SDS011;59616;52.170;5.386;2022-11-21T04:07:40;36.28;;;10.90;;
70800;SDS011;59616;52.170;5.386;2022-11-21T04:12:34;51.95;;;12.10;;
70800;SDS011;59616;52.170;5.386;2022-11-21T04:15:02;53.97;;;11.63;;
70800;SDS011;59616;52.170;5.386;2022-11-21T04:17:32;84.78;;;12.13;;
70800;SDS011;59616;52.170;5.386;2022-11-21T04:19:59;47.67;;;11.10;;
70800;SDS011;59616;52.170;5.386;2022-11-21T04:24:53;43.35;;;10.48;;
70800;SDS011;59616;52.170;5.386;2022-11-21T04:29:47;52.85;;;11.23;;
70800;SDS011;59616;52.170;5.386;2022-11-21T04:34:40;48.92;;;11.07;;
70800;SDS011;59616;52.170;5.386;2022-11-21T04:39:37;52.25;;;11.07;;
70800;SDS011;59616;52.170;5.386;2022-11-21T04:44:30;76.47;;;11.98;;
70800;SDS011;59616;52.170;5.386;2022-11-21T04:49:30;57.05;;;10.95;;
70800;SDS011;59616;52.170;5.386;2022-11-21T04:54:25;60.10;;;10.80;;
70800;SDS011;59616;52.170;5.386;2022-11-21T04:56:52;43.40;;;11.75;;
70800;SDS011;59616;52.170;5.386;2022-11-21T04:59:20;44.85;;;11.50;;
70800;SDS011;59616;52.170;5.386;2022-11-21T05:04:13;58.95;;;11.98;;
70800;SDS011;59616;52.170;5.386;2022-11-21T05:09:07;45.97;;;11.90;;
70800;SDS011;59616;52.170;5.386;2022-11-21T05:11:34;57.97;;;11.55;;
70800;SDS011;59616;52.170;5.386;2022-11-21T05:14:20;49.92;;;11.05;;
70800;SDS011;59616;52.170;5.386;2022-11-21T05:16:51;55.80;;;11.10;;
70800;SDS011;59616;52.170;5.386;2022-11-21T05:19:19;58.58;;;11.55;;
70800;SDS011;59616;52.170;5.386;2022-11-21T05:24:13;29.88;;;9.65;;
70800;SDS011;59616;52.170;5.386;2022-11-21T05:29:07;34.55;;;9.68;;
70800;SDS011;59616;52.170;5.386;2022-11-21T05:34:01;28.65;;;9.27;;
70800;SDS011;59616;52.170;5.386;2022-11-21T05:38:54;38.60;;;9.65;;
70800;SDS011;59616;52.170;5.386;2022-11-21T05:41:22;64.00;;;10.80;;
70800;SDS011;59616;52.170;5.386;2022-11-21T05:43:49;43.95;;;10.18;;
70800;SDS011;59616;52.170;5.386;2022-11-21T05:48:45;66.90;;;10.40;;
70800;SDS011;59616;52.170;5.386;2022-11-21T05:51:12;65.57;;;11.15;;
70800;SDS011;59616;52.170;5.386;2022-11-21T05:53:40;54.53;;;11.75;;
70800;SDS011;59616;52.170;5.386;2022-11-21T05:56:11;48.63;;;10.93;;
70800;SDS011;59616;52.170;5.386;2022-11-21T05:58:40;75.38;;;13.07;;
70800;SDS011;59616;52.170;5.386;2022-11-21T06:01:08;76.93;;;12.52;;
70800;SDS011;59616;52.170;5.386;2022-11-21T06:03:37;78.65;;;13.20;;
70800;SDS011;59616;52.170;5.386;2022-11-21T06:06:05;56.30;;;11.27;;
70800;SDS011;59616;52.170;5.386;2022-11-21T06:08:34;53.15;;;11.32;;
70800;SDS011;59616;52.170;5.386;2022-11-21T06:11:02;58.00;;;12.82;;
70800;SDS011;59616;52.170;5.386;2022-11-21T06:13:30;76.35;;;12.98;;
70800;SDS011;59616;52.170;5.386;2022-11-21T06:15:59;61.53;;;13.70;;
70800;SDS011;59616;52.170;5.386;2022-11-21T06:18:27;53.60;;;14.07;;
70800;SDS011;59616;52.170;5.386;2022-11-21T06:23:28;74.55;;;12.23;;
70800;SDS011;59616;52.170;5.386;2022-11-21T06:28:24;52.67;;;11.82;;
70800;SDS011;59616;52.170;5.386;2022-11-21T06:30:51;61.65;;;12.27;;
70800;SDS011;59616;52.170;5.386;2022-11-21T06:33:18;56.10;;;12.93;;
70800;SDS011;59616;52.170;5.386;2022-11-21T06:35:46;47.97;;;12.73;;
70800;SDS011;59616;52.170;5.386;2022-11-21T06:40:43;45.88;;;11.88;;
70800;SDS011;59616;52.170;5.386;2022-11-21T06:43:11;48.28;;;12.95;;
70800;SDS011;59616;52.170;5.386;2022-11-21T06:45:38;42.22;;;11.80;;
70800;SDS011;59616;52.170;5.386;2022-11-21T06:50:32;41.97;;;11.48;;
70800;SDS011;59616;52.170;5.386;2022-11-21T06:52:59;36.80;;;11.05;;
70800;SDS011;59616;52.170;5.386;2022-11-21T06:55:26;49.72;;;13.25;;
70800;SDS011;59616;52.170;5.386;2022-11-21T06:57:58;43.88;;;11.02;;
70800;SDS011;59616;52.170;5.386;2022-11-21T07:00:25;39.70;;;12.32;;
70800;SDS011;59616;52.170;5.386;2022-11-21T07:02:59;38.60;;;11.75;;
70800;SDS011;59616;52.170;5.386;2022-11-21T07:05:28;42.63;;;12.70;;
70800;SDS011;59616;52.170;5.386;2022-11-21T07:07:57;34.45;;;10.85;;
70800;SDS011;59616;52.170;5.386;2022-11-21T07:10:24;45.33;;;11.20;;
70800;SDS011;59616;52.170;5.386;2022-11-21T07:12:55;42.08;;;11.30;;
70800;SDS011;59616;52.170;5.386;2022-11-21T07:15:41;39.17;;;12.00;;
70800;SDS011;59616;52.170;5.386;2022-11-21T07:18:08;35.58;;;11.57;;
70800;SDS011;59616;52.170;5.386;2022-11-21T07:20:36;39.50;;;11.80;;
70800;SDS011;59616;52.170;5.386;2022-11-21T07:23:03;36.72;;;10.98;;
70800;SDS011;59616;52.170;5.386;2022-11-21T07:25:30;34.30;;;10.80;;
70800;SDS011;59616;52.170;5.386;2022-11-21T07:28:02;32.50;;;9.38;;
70800;SDS011;59616;52.170;5.386;2022-11-21T07:30:29;35.70;;;10.38;;
70800;SDS011;59616;52.170;5.386;2022-11-21T07:35:24;27.85;;;9.80;;
70800;SDS011;59616;52.170;5.386;2022-11-21T07:37:51;29.80;;;10.32;;
70800;SDS011;59616;52.170;5.386;2022-11-21T07:40:19;32.67;;;10.05;;
70800;SDS011;59616;52.170;5.386;2022-11-21T07:42:46;31.33;;;9.45;;
70800;SDS011;59616;52.170;5.386;2022-11-21T07:45:14;30.70;;;9.70;;
70800;SDS011;59616;52.170;5.386;2022-11-21T07:47:41;33.35;;;9.73;;
70800;SDS011;59616;52.170;5.386;2022-11-21T07:52:35;29.88;;;9.00;;
70800;SDS011;59616;52.170;5.386;2022-11-21T07:55:03;30.38;;;10.20;;
70800;SDS011;59616;52.170;5.386;2022-11-21T07:57:31;32.22;;;9.13;;
70800;SDS011;59616;52.170;5.386;2022-11-21T07:59:58;28.85;;;8.77;;
70800;SDS011;59616;52.170;5.386;2022-11-21T08:02:26;33.03;;;10.35;;
70800;SDS011;59616;52.170;5.386;2022-11-21T08:04:53;31.52;;;9.68;;
70800;SDS011;59616;52.170;5.386;2022-11-21T08:07:21;29.70;;;10.10;;
70800;SDS011;59616;52.170;5.386;2022-11-21T08:09:49;27.85;;;9.50;;
70800;SDS011;59616;52.170;5.386;2022-11-21T08:14:43;31.15;;;10.60;;
70800;SDS011;59616;52.170;5.386;2022-11-21T08:17:10;30.65;;;9.98;;
70800;SDS011;59616;52.170;5.386;2022-11-21T08:19:39;26.75;;;9.25;;
70800;SDS011;59616;52.170;5.386;2022-11-21T08:22:07;29.83;;;8.88;;
70800;SDS011;59616;52.170;5.386;2022-11-21T08:24:34;27.58;;;9.60;;
70800;SDS011;59616;52.170;5.386;2022-11-21T08:29:28;32.00;;;10.18;;
70800;SDS011;59616;52.170;5.386;2022-11-21T08:31:55;31.85;;;10.15;;
70800;SDS011;59616;52.170;5.386;2022-11-21T08:36:49;32.30;;;9.73;;
70800;SDS011;59616;52.170;5.386;2022-11-21T08:39:16;34.97;;;10.45;;
70800;SDS011;59616;52.170;5.386;2022-11-21T08:41:44;33.30;;;10.55;;
70800;SDS011;59616;52.170;5.386;2022-11-21T08:44:30;32.15;;;10.32;;
70800;SDS011;59616;52.170;5.386;2022-11-21T08:46:57;31.23;;;11.05;;
70800;SDS011;59616;52.170;5.386;2022-11-21T08:49:24;32.70;;;10.55;;
70800;SDS011;59616;52.170;5.386;2022-11-21T08:51:52;28.95;;;10.10;;
70800;SDS011;59616;52.170;5.386;2022-11-21T08:54:20;33.65;;;10.63;;
70800;SDS011;59616;52.170;5.386;2022-11-21T08:56:48;33.65;;;10.63;;
70800;SDS011;59616;52.170;5.386;2022-11-21T08:59:15;33.38;;;11.10;;
70800;SDS011;59616;52.170;5.386;2022-11-21T09:01:43;31.02;;;10.32;;
70800;SDS011;59616;52.170;5.386;2022-11-21T09:04:10;36.25;;;10.55;;
70800;SDS011;59616;52.170;5.386;2022-11-21T09:06:37;30.92;;;10.35;;
70800;SDS011;59616;52.170;5.386;2022-11-21T09:09:05;31.88;;;9.93;;
70800;SDS011;59616;52.170;5.386;2022-11-21T09:11:33;30.55;;;10.50;;
70800;SDS011;59616;52.170;5.386;2022-11-21T09:14:01;32.60;;;10.40;;
70800;SDS011;59616;52.170;5.386;2022-11-21T09:16:46;35.17;;;11.90;;
70800;SDS011;59616;52.170;5.386;2022-11-21T09:19:32;33.42;;;11.10;;
70800;SDS011;59616;52.170;5.386;2022-11-21T09:21:59;30.90;;;9.80;;
70800;SDS011;59616;52.170;5.386;2022-11-21T09:24:26;41.92;;;11.70;;
70800;SDS011;59616;52.170;5.386;2022-11-21T09:26:53;43.85;;;11.60;;
70800;SDS011;59616;52.170;5.386;2022-11-21T09:29:21;34.00;;;11.60;;
70800;SDS011;59616;52.170;5.386;2022-11-21T09:31:48;38.53;;;10.57;;
70800;SDS011;59616;52.170;5.386;2022-11-21T09:34:15;35.90;;;12.38;;
70800;SDS011;59616;52.170;5.386;2022-11-21T09:36:43;43.63;;;11.55;;
70800;SDS011;59616;52.170;5.386;2022-11-21T09:39:12;36.88;;;11.55;;
70800;SDS011;59616;52.170;5.386;2022-11-21T09:41:43;49.15;;;13.20;;
70800;SDS011;59616;52.170;5.386;2022-11-21T09:46:46;37.90;;;12.60;;
70800;SDS011;59616;52.170;5.386;2022-11-21T09:49:14;40.60;;;11.50;;
70800;SDS011;59616;52.170;5.386;2022-11-21T09:51:42;40.78;;;11.57;;
70800;SDS011;59616;52.170;5.386;2022-11-21T09:54:14;35.92;;;11.70;;
70800;SDS011;59616;52.170;5.386;2022-11-21T09:56:42;34.33;;;11.55;;
70800;SDS011;59616;52.170;5.386;2022-11-21T09:59:31;39.67;;;10.98;;
70800;SDS011;59616;52.170;5.386;2022-11-21T10:01:59;33.85;;;10.93;;
70800;SDS011;59616;52.170;5.386;2022-11-21T10:04:26;30.67;;;10.20;;
70800;SDS011;59616;52.170;5.386;2022-11-21T10:14:46;36.63;;;11.77;;
70800;SDS011;59616;52.170;5.386;2022-11-21T10:25:20;34.53;;;11.88;;
70800;SDS011;59616;52.170;5.386;2022-11-21T10:28:01;37.25;;;11.85;;
70800;SDS011;59616;52.170;5.386;2022-11-21T10:30:30;33.83;;;11.70;;
70800;SDS011;59616;52.170;5.386;2022-11-21T10:33:00;33.35;;;11.60;;
70800;SDS011;59616;52.170;5.386;2022-11-21T10:35:35;35.33;;;11.63;;
70800;SDS011;59616;52.170;5.386;2022-11-21T10:38:17;38.60;;;12.00;;
70800;SDS011;59616;52.170;5.386;2022-11-21T10:40:49;35.63;;;11.55;;
70800;SDS011;59616;52.170;5.386;2022-11-21T10:43:25;38.90;;;13.02;;
70800;SDS011;59616;52.170;5.386;2022-11-21T10:46:13;34.95;;;11.35;;
70800;SDS011;59616;52.170;5.386;2022-11-21T10:48:40;32.95;;;11.27;;
70800;SDS011;59616;52.170;5.386;2022-11-21T10:51:11;30.02;;;10.93;;
70800;SDS011;59616;52.170;5.386;2022-11-21T10:53:43;35.35;;;12.00;;
70800;SDS011;59616;52.170;5.386;2022-11-21T10:56:33;33.42;;;11.00;;
70800;SDS011;59616;52.170;5.386;2022-11-21T10:59:10;33.70;;;11.70;;
70800;SDS011;59616;52.170;5.386;2022-11-21T11:01:38;34.88;;;12.38;;
70800;SDS011;59616;52.170;5.386;2022-11-21T11:06:52;34.78;;;11.95;;
70800;SDS011;59616;52.170;5.386;2022-11-21T11:12:15;34.33;;;11.65;;
70800;SDS011;59616;52.170;5.386;2022-11-21T11:14:40;33.88;;;11.43;;
70800;SDS011;59616;52.170;5.386;2022-11-21T11:17:15;33.80;;;11.88;;
70800;SDS011;59616;52.170;5.386;2022-11-21T11:19:58;34.47;;;12.82;;
70800;SDS011;59616;52.170;5.386;2022-11-21T11:22:26;36.65;;;12.35;;
70800;SDS011;59616;52.170;5.386;2022-11-21T11:24:54;32.00;;;12.20;;
70800;SDS011;59616;52.170;5.386;2022-11-21T11:27:26;35.47;;;12.95;;
70800;SDS011;59616;52.170;5.386;2022-11-21T11:29:54;34.58;;;11.77;;
70800;SDS011;59616;52.170;5.386;2022-11-21T11:32:21;35.47;;;12.60;;
70800;SDS011;59616;52.170;5.386;2022-11-21T11:34:59;35.65;;;12.18;;
70800;SDS011;59616;52.170;5.386;2022-11-21T11:37:39;33.10;;;12.73;;
70800;SDS011;59616;52.170;5.386;2022-11-21T11:42:52;36.33;;;12.73;;
70800;SDS011;59616;52.170;5.386;2022-11-21T11:45:47;35.55;;;13.40;;
70800;SDS011;59616;52.170;5.386;2022-11-21T11:48:36;37.33;;;12.90;;
70800;SDS011;59616;52.170;5.386;2022-11-21T11:51:31;37.85;;;13.00;;
70800;SDS011;59616;52.170;5.386;2022-11-21T11:54:02;29.63;;;11.85;;
70800;SDS011;59616;52.170;5.386;2022-11-21T11:56:32;33.30;;;12.40;;
70800;SDS011;59616;52.170;5.386;2022-11-21T12:04:21;33.47;;;12.00;;
70800;SDS011;59616;52.170;5.386;2022-11-21T12:06:59;31.00;;;11.65;;
70800;SDS011;59616;52.170;5.386;2022-11-21T12:12:17;32.97;;;11.75;;
70800;SDS011;59616;52.170;5.386;2022-11-21T12:20:16;32.22;;;12.50;;
70800;SDS011;59616;52.170;5.386;2022-11-21T12:22:45;32.35;;;11.70;;
70800;SDS011;59616;52.170;5.386;2022-11-21T12:25:14;35.35;;;11.85;;
70800;SDS011;59616;52.170;5.386;2022-11-21T12:27:42;35.40;;;12.00;;
70800;SDS011;59616;52.170;5.386;2022-11-21T12:46:42;28.75;;;10.98;;
70800;SDS011;59616;52.170;5.386;2022-11-21T12:49:19;27.52;;;10.68;;
70800;SDS011;59616;52.170;5.386;2022-11-21T12:52:20;28.98;;;10.95;;
70800;SDS011;59616;52.170;5.386;2022-11-21T12:55:08;26.75;;;10.48;;
70800;SDS011;59616;52.170;5.386;2022-11-21T12:58:16;25.80;;;10.02;;
70800;SDS011;59616;52.170;5.386;2022-11-21T13:01:02;24.92;;;9.98;;
70800;SDS011;59616;52.170;5.386;2022-11-21T13:06:24;23.95;;;9.93;;
70800;SDS011;59616;52.170;5.386;2022-11-21T13:08:52;26.75;;;10.50;;
70800;SDS011;59616;52.170;5.386;2022-11-21T13:11:27;24.25;;;9.48;;
70800;SDS011;59616;52.170;5.386;2022-11-21T13:19:43;23.98;;;8.18;;
70800;SDS011;59616;52.170;5.386;2022-11-21T13:30:45;20.17;;;8.07;;
70800;SDS011;59616;52.170;5.386;2022-11-21T14:00:34;16.98;;;5.85;;
70800;SDS011;59616;52.170;5.386;2022-11-21T14:11:35;14.27;;;5.45;;
70800;SDS011;59616;52.170;5.386;2022-11-21T14:14:07;16.05;;;6.10;;
70800;SDS011;59616;52.170;5.386;2022-11-21T14:16:40;14.73;;;5.20;;
70800;SDS011;59616;52.170;5.386;2022-11-21T14:19:27;15.75;;;6.05;;
70800;SDS011;59616;52.170;5.386;2022-11-21T14:21:57;16.48;;;6.22;;
70800;SDS011;59616;52.170;5.386;2022-11-21T14:24:25;13.10;;;5.38;;
70800;SDS011;59616;52.170;5.386;2022-11-21T14:26:53;14.38;;;5.63;;
70800;SDS011;59616;52.170;5.386;2022-11-21T14:31:54;13.90;;;5.78;;
70800;SDS011;59616;52.170;5.386;2022-11-21T14:34:25;15.57;;;5.15;;
70800;SDS011;59616;52.170;5.386;2022-11-21T14:36:54;19.48;;;5.78;;
70800;SDS011;59616;52.170;5.386;2022-11-21T14:39:23;19.55;;;6.45;;
70800;SDS011;59616;52.170;5.386;2022-11-21T14:42:04;15.05;;;5.63;;
70800;SDS011;59616;52.170;5.386;2022-11-21T14:44:33;14.93;;;6.20;;
70800;SDS011;59616;52.170;5.386;2022-11-21T14:47:16;12.40;;;5.15;;
70800;SDS011;59616;52.170;5.386;2022-11-21T14:49:54;15.00;;;5.50;;
70800;SDS011;59616;52.170;5.386;2022-11-21T14:52:26;16.83;;;5.78;;
70800;SDS011;59616;52.170;5.386;2022-11-21T14:54:56;16.08;;;5.85;;
70800;SDS011;59616;52.170;5.386;2022-11-21T14:57:44;15.80;;;5.80;;
70800;SDS011;59616;52.170;5.386;2022-11-21T15:00:13;18.30;;;5.50;;
70800;SDS011;59616;52.170;5.386;2022-11-21T15:03:01;15.93;;;6.07;;
70800;SDS011;59616;52.170;5.386;2022-11-21T15:05:29;18.00;;;6.40;;
70800;SDS011;59616;52.170;5.386;2022-11-21T15:08:21;16.42;;;5.95;;
70800;SDS011;59616;52.170;5.386;2022-11-21T15:11:08;14.82;;;5.57;;
70800;SDS011;59616;52.170;5.386;2022-11-21T15:13:35;16.17;;;5.80;;
70800;SDS011;59616;52.170;5.386;2022-11-21T15:16:23;15.60;;;5.75;;
70800;SDS011;59616;52.170;5.386;2022-11-21T15:18:50;14.40;;;5.72;;
70800;SDS011;59616;52.170;5.386;2022-11-21T15:21:18;15.95;;;5.65;;
70800;SDS011;59616;52.170;5.386;2022-11-21T15:23:45;16.63;;;6.75;;
70800;SDS011;59616;52.170;5.386;2022-11-21T15:26:26;21.02;;;7.18;;
70800;SDS011;59616;52.170;5.386;2022-11-21T15:28:56;19.00;;;6.00;;
70800;SDS011;59616;52.170;5.386;2022-11-21T15:31:23;14.15;;;6.05;;
70800;SDS011;59616;52.170;5.386;2022-11-21T15:33:54;17.20;;;5.88;;
70800;SDS011;59616;52.170;5.386;2022-11-21T15:36:41;16.90;;;6.22;;
70800;SDS011;59616;52.170;5.386;2022-11-21T15:39:20;18.10;;;6.35;;
70800;SDS011;59616;52.170;5.386;2022-11-21T15:41:48;19.70;;;6.43;;
70800;SDS011;59616;52.170;5.386;2022-11-21T15:44:19;17.55;;;5.75;;
70800;SDS011;59616;52.170;5.386;2022-11-21T15:46:49;16.58;;;5.68;;
70800;SDS011;59616;52.170;5.386;2022-11-21T15:49:17;16.75;;;5.72;;
70800;SDS011;59616;52.170;5.386;2022-11-21T15:52:07;15.68;;;5.28;;
70800;SDS011;59616;52.170;5.386;2022-11-21T15:54:37;13.60;;;5.15;;
70800;SDS011;59616;52.170;5.386;2022-11-21T15:57:04;14.20;;;5.38;;
70800;SDS011;59616;52.170;5.386;2022-11-21T15:59:32;17.52;;;5.72;;
70800;SDS011;59616;52.170;5.386;2022-11-21T16:01:59;15.10;;;5.30;;
70800;SDS011;59616;52.170;5.386;2022-11-21T16:04:26;13.35;;;5.72;;
70800;SDS011;59616;52.170;5.386;2022-11-21T16:06:53;11.77;;;4.85;;
70800;SDS011;59616;52.170;5.386;2022-11-21T16:09:21;16.63;;;5.53;;
70800;SDS011;59616;52.170;5.386;2022-11-21T16:11:48;13.13;;;5.55;;
70800;SDS011;59616;52.170;5.386;2022-11-21T16:14:15;15.65;;;5.45;;
70800;SDS011;59616;52.170;5.386;2022-11-21T16:16:46;15.80;;;5.35;;
70800;SDS011;59616;52.170;5.386;2022-11-21T16:19:13;15.50;;;5.50;;
70800;SDS011;59616;52.170;5.386;2022-11-21T16:21:41;14.15;;;6.00;;
70800;SDS011;59616;52.170;5.386;2022-11-21T16:24:08;17.08;;;6.57;;
70800;SDS011;59616;52.170;5.386;2022-11-21T16:26:35;14.73;;;5.70;;
70800;SDS011;59616;52.170;5.386;2022-11-21T16:29:03;18.27;;;5.50;;
70800;SDS011;59616;52.170;5.386;2022-11-21T16:31:31;16.90;;;5.32;;
70800;SDS011;59616;52.170;5.386;2022-11-21T16:33:58;17.52;;;6.25;;
70800;SDS011;59616;52.170;5.386;2022-11-21T16:36:27;15.02;;;5.60;;
70800;SDS011;59616;52.170;5.386;2022-11-21T16:38:54;18.98;;;6.70;;
70800;SDS011;59616;52.170;5.386;2022-11-21T16:41:27;16.48;;;6.35;;
70800;SDS011;59616;52.170;5.386;2022-11-21T16:43:54;18.52;;;6.75;;
70800;SDS011;59616;52.170;5.386;2022-11-21T16:46:22;20.02;;;6.38;;
70800;SDS011;59616;52.170;5.386;2022-11-21T16:48:56;18.38;;;5.35;;
70800;SDS011;59616;52.170;5.386;2022-11-21T16:51:23;15.52;;;5.25;;
70800;SDS011;59616;52.170;5.386;2022-11-21T16:53:50;20.67;;;6.72;;
70800;SDS011;59616;52.170;5.386;2022-11-21T16:56:17;16.88;;;6.57;;
70800;SDS011;59616;52.170;5.386;2022-11-21T16:58:44;16.55;;;6.18;;
70800;SDS011;59616;52.170;5.386;2022-11-21T17:01:16;16.95;;;6.20;;
70800;SDS011;59616;52.170;5.386;2022-11-21T17:03:44;17.80;;;6.43;;
70800;SDS011;59616;52.170;5.386;2022-11-21T17:06:13;16.65;;;5.88;;
70800;SDS011;59616;52.170;5.386;2022-11-21T17:08:41;19.35;;;5.80;;
70800;SDS011;59616;52.170;5.386;2022-11-21T17:11:18;12.50;;;5.40;;
70800;SDS011;59616;52.170;5.386;2022-11-21T17:13:46;12.50;;;5.22;;
70800;SDS011;59616;52.170;5.386;2022-11-21T17:16:14;13.65;;;5.25;;
70800;SDS011;59616;52.170;5.386;2022-11-21T17:18:42;14.52;;;5.03;;
70800;SDS011;59616;52.170;5.386;2022-11-21T17:21:11;14.48;;;5.20;;
70800;SDS011;59616;52.170;5.386;2022-11-21T17:23:39;17.13;;;5.10;;
70800;SDS011;59616;52.170;5.386;2022-11-21T17:26:07;16.48;;;5.93;;
70800;SDS011;59616;52.170;5.386;2022-11-21T17:28:35;17.05;;;5.53;;
70800;SDS011;59616;52.170;5.386;2022-11-21T17:31:11;14.70;;;5.25;;
70800;SDS011;59616;52.170;5.386;2022-11-21T17:33:38;12.30;;;4.60;;
70800;SDS011;59616;52.170;5.386;2022-11-21T17:36:07;13.02;;;5.10;;
70800;SDS011;59616;52.170;5.386;2022-11-21T17:38:37;13.30;;;5.43;;
70800;SDS011;59616;52.170;5.386;2022-11-21T17:41:06;14.13;;;4.55;;
70800;SDS011;59616;52.170;5.386;2022-11-21T17:43:33;18.73;;;4.97;;
70800;SDS011;59616;52.170;5.386;2022-11-21T17:46:04;12.05;;;4.03;;
70800;SDS011;59616;52.170;5.386;2022-11-21T17:48:35;14.15;;;4.38;;
70800;SDS011;59616;52.170;5.386;2022-11-21T17:51:04;13.98;;;4.20;;
70800;SDS011;59616;52.170;5.386;2022-11-21T17:53:33;13.25;;;3.85;;
70800;SDS011;59616;52.170;5.386;2022-11-21T17:56:02;11.18;;;4.32;;
70800;SDS011;59616;52.170;5.386;2022-11-21T17:58:29;10.95;;;3.92;;
70800;SDS011;59616;52.170;5.386;2022-11-21T18:00:57;15.60;;;4.63;;
70800;SDS011;59616;52.170;5.386;2022-11-21T18:03:25;11.43;;;3.95;;
70800;SDS011;59616;52.170;5.386;2022-11-21T18:06:27;15.90;;;4.47;;
70800;SDS011;59616;52.170;5.386;2022-11-21T18:08:46;13.20;;;4.38;;
70800;SDS011;59616;52.170;5.386;2022-11-21T18:11:18;11.25;;;4.15;;
70800;SDS011;59616;52.170;5.386;2022-11-21T18:13:49;16.17;;;4.63;;
70800;SDS011;59616;52.170;5.386;2022-11-21T18:16:17;12.07;;;4.78;;
70800;SDS011;59616;52.170;5.386;2022-11-21T18:18:44;13.35;;;4.70;;
70800;SDS011;59616;52.170;5.386;2022-11-21T18:21:13;15.52;;;4.72;;
70800;SDS011;59616;52.170;5.386;2022-11-21T18:23:40;14.05;;;4.90;;
70800;SDS011;59616;52.170;5.386;2022-11-21T18:28:39;13.05;;;4.80;;
70800;SDS011;59616;52.170;5.386;2022-11-21T18:31:20;13.77;;;4.63;;
70800;SDS011;59616;52.170;5.386;2022-11-21T18:33:48;12.23;;;5.03;;
70800;SDS011;59616;52.170;5.386;2022-11-21T18:36:15;15.55;;;4.88;;
70800;SDS011;59616;52.170;5.386;2022-11-21T18:38:43;13.15;;;4.95;;
70800;SDS011;59616;52.170;5.386;2022-11-21T18:41:28;14.45;;;4.88;;